Strona główna
METAR-TAF:

METAR-TAF

Lotnisko :

Port lotniczy Asunción

Asunción, Paragwaj

Szerokość geograficzna: 25-16S, Długość geograficzna: 057-38W, wysokość: 101 m

Aktualna obserwacja pogody

Raport powstał 1 godzina i 30 minut temu, godzina 06:00 UTC
Wiatr 4 kt od wschodnio-północny wschód
Temperatura 18°C
Wilgotność 73%
Ciśnienie 1019 hPa
Widzialność 10 km lub więcej
Brak chmur poniżej 1500 m i brak chmur cumulonimbus

METAR: SGAS 200600Z 07004KT CAVOK 18/13 Q1019

czas: 03:30 (07:30 UTC)

Prognoza

Raport powstał 3 godziny i 30 minut temu, godzina 04:00 UTC
Prognoza ważna od 20 godzina 06 UTC do 21 godzina 06 UTC
Wiatr 2 kt z kierunków zmiennych
Widzialność 10 km lub więcej
Brak chmur poniżej 1500 m i brak chmur cumulonimbus
Stopniowe zmiany
od 20 godzina 15 UTC do 20 godzina 17 UTC
Wiatr 11 kt od północny wschód
Widzialność 10 km lub więcej
Brak chmur poniżej 1500 m i brak chmur cumulonimbus

TAF: SGAS 200400Z 2006/2106 VRB02KT CAVOK TX28/2019Z TN16/2009Z BECMG 2015/2017 05011KT CAVOK

Obserwacja i prognoza pogody dla ponad 4000 lotnisk (raport METAR i TAF).

Dostępne stacje oznaczono żółtymi i czerwonymi punktami na mapie.

Najedź kursorem aby zobaczyć nazwę stacji.

Kliknij aby zobaczyć obserwacje i prognozy pogody.

Aby zmienić mapę: kliknij na zielony przycisk z czarnym krzyżykiem, aby powiększyć; na zielony przycisk z myślnikiem, aby pomniejszyć; na zielone strzałki, aby przejść do map sąsiednich.


METAR-TAF: